createdAt,value
2023-01-15T00:02:21.592Z,96655.47
2023-01-15T00:04:51.194Z,96654.63
2023-01-15T00:07:20.074Z,96654.44
2023-01-15T00:09:46.703Z,96650.59
2023-01-15T00:12:13.305Z,96634.75
2023-01-15T00:14:39.874Z,96628.00
2023-01-15T00:17:06.500Z,96628.97
2023-01-15T00:19:33.160Z,96628.13
2023-01-15T00:21:59.692Z,96631.88
2023-01-15T00:24:45.158Z,96624.09
2023-01-15T00:27:30.567Z,96628.31
2023-01-15T00:29:57.251Z,96607.41
2023-01-15T00:32:27.098Z,96577.63
2023-01-15T00:34:53.687Z,96589.66
2023-01-15T00:37:22.445Z,96600.94
2023-01-15T00:39:49.062Z,96593.25
2023-01-15T00:42:17.095Z,96583.31
2023-01-15T00:44:43.952Z,96563.94
2023-01-15T00:47:14.751Z,96587.13
2023-01-15T00:49:44.618Z,96590.78
2023-01-15T00:52:12.544Z,96590.78
2023-01-15T00:54:39.298Z,96576.38
2023-01-15T00:57:05.891Z,96588.34
2023-01-15T00:59:32.678Z,96570.16
2023-01-15T01:01:59.346Z,96584.47
2023-01-15T01:04:26.102Z,96576.19
2023-01-15T01:06:53.321Z,96592.97
2023-01-15T01:09:19.908Z,96592.38
2023-01-15T01:11:46.519Z,96594.13
2023-01-15T01:14:13.220Z,96577.56
2023-01-15T01:16:42.024Z,96559.31
2023-01-15T01:19:11.728Z,96545.53
2023-01-15T01:21:42.766Z,96537.97
2023-01-15T01:24:13.225Z,96528.59
2023-01-15T01:26:40.627Z,96524.25
2023-01-15T01:29:07.335Z,96525.56
2023-01-15T01:31:33.946Z,96528.31
2023-01-15T01:34:02.695Z,96524.78
2023-01-15T01:36:33.119Z,96527.25
2023-01-15T01:39:00.451Z,96543.19
2023-01-15T01:41:28.211Z,96527.63
2023-01-15T01:44:03.254Z,96521.34
2023-01-15T01:46:35.324Z,96523.72
2023-01-15T01:49:13.041Z,96526.53
2023-01-15T01:52:04.093Z,96519.72
2023-01-15T01:54:32.809Z,96520.78
2023-01-15T01:57:02.444Z,96522.91
2023-01-15T01:59:29.836Z,96531.88
2023-01-15T02:01:56.684Z,96523.72
2023-01-15T02:04:27.278Z,96531.38
2023-01-15T02:06:54.073Z,96526.06
2023-01-15T02:09:20.847Z,96536.00
2023-01-15T02:11:48.612Z,96543.78
2023-01-15T02:14:29.529Z,96538.09
2023-01-15T02:17:04.101Z,96513.66
2023-01-15T02:19:46.862Z,96520.28
2023-01-15T02:22:13.477Z,96519.81
2023-01-15T02:24:50.218Z,96531.03
2023-01-15T02:27:20.710Z,96527.25
2023-01-15T02:30:12.613Z,96526.78
2023-01-15T02:32:44.079Z,96544.00
2023-01-15T02:35:43.319Z,96544.00
2023-01-15T02:38:15.253Z,96549.41
2023-01-15T02:40:43.513Z,96527.94
2023-01-15T02:43:13.176Z,96514.47
2023-01-15T02:45:43.627Z,96505.50
2023-01-15T02:48:13.850Z,96501.72
2023-01-15T02:51:01.553Z,96482.59
2023-01-15T02:53:31.139Z,96486.41
2023-01-15T02:56:04.483Z,96463.59
2023-01-15T02:58:39.790Z,96453.56
2023-01-15T03:01:13.212Z,96441.88
2023-01-15T03:04:06.963Z,96433.50
2023-01-15T03:06:41.414Z,96425.03
2023-01-15T03:09:09.097Z,96426.66
2023-01-15T03:11:46.741Z,96413.56
2023-01-15T03:14:27.560Z,96415.81
2023-01-15T03:16:59.644Z,96420.53
2023-01-15T03:19:29.176Z,96399.28
2023-01-15T03:22:10.271Z,96411.59
2023-01-15T03:24:39.937Z,96398.47
2023-01-15T03:27:07.102Z,96396.84
2023-01-15T03:29:39.535Z,96413.94
2023-01-15T03:32:06.191Z,96363.19
2023-01-15T03:34:45.041Z,96356.81
2023-01-15T03:37:12.385Z,96373.09
2023-01-15T03:39:42.137Z,96370.88
2023-01-15T03:42:35.060Z,96347.88
2023-01-15T03:45:09.090Z,96356.59
2023-01-15T03:48:00.101Z,96356.59
2023-01-15T03:50:40.500Z,96351.75
2023-01-15T03:53:15.960Z,96344.78
2023-01-15T03:55:45.352Z,96350.34
2023-01-15T03:58:19.477Z,96362.72
2023-01-15T04:00:59.835Z,96360.50
2023-01-15T04:03:30.099Z,96344.56
2023-01-15T04:06:00.100Z,96338.44
2023-01-15T04:08:29.547Z,96350.81
2023-01-15T04:11:01.398Z,96351.41
2023-01-15T04:13:31.224Z,96336.06
2023-01-15T04:15:58.902Z,96324.16
2023-01-15T04:18:25.849Z,96331.25
2023-01-15T04:20:52.411Z,96316.50
2023-01-15T04:23:18.930Z,96316.97
2023-01-15T04:25:47.737Z,96309.91
2023-01-15T04:28:14.315Z,96295.97
2023-01-15T04:30:43.636Z,96290.69
2023-01-15T04:33:10.843Z,96284.44
2023-01-15T04:35:38.744Z,96275.59
2023-01-15T04:38:07.825Z,96282.53
2023-01-15T04:40:52.961Z,96293.13
2023-01-15T04:43:37.929Z,96285.00
2023-01-15T04:46:04.513Z,96262.88
2023-01-15T04:48:31.594Z,96262.97
2023-01-15T04:51:05.115Z,96253.78
2023-01-15T04:53:31.912Z,96253.88
2023-01-15T04:56:05.338Z,96252.25
2023-01-15T04:58:35.112Z,96247.06
2023-01-15T05:01:01.969Z,96251.28
2023-01-15T05:03:29.857Z,96246.00
2023-01-15T05:06:00.830Z,96243.06
2023-01-15T05:08:27.951Z,96245.50
2023-01-15T05:10:54.680Z,96259.88
2023-01-15T05:13:21.114Z,96254.59
2023-01-15T05:15:48.519Z,96245.59
2023-01-15T05:18:15.228Z,96251.16
2023-01-15T05:20:42.341Z,96239.84
2023-01-15T05:23:11.345Z,96236.31
2023-01-15T05:25:38.187Z,96229.25
2023-01-15T05:28:05.209Z,96222.06
2023-01-15T05:30:31.774Z,96229.34
2023-01-15T05:32:58.205Z,96216.88
2023-01-15T05:35:27.053Z,96206.88
2023-01-15T05:37:53.499Z,96205.81
2023-01-15T05:40:19.974Z,96210.75
2023-01-15T05:42:48.557Z,96203.06
2023-01-15T05:45:15.067Z,96202.03
2023-01-15T05:47:41.544Z,96202.59
2023-01-15T05:50:08.781Z,96195.91
2023-01-15T05:52:35.201Z,96196.25
2023-01-15T05:55:04.072Z,96196.47
2023-01-15T05:57:32.746Z,96193.41
2023-01-15T05:59:59.337Z,96197.19
2023-01-15T06:02:25.837Z,96205.19
2023-01-15T06:04:52.401Z,96209.94
2023-01-15T06:07:18.904Z,96203.06
2023-01-15T06:09:50.228Z,96196.50
2023-01-15T06:12:16.709Z,96208.75
2023-01-15T06:14:45.409Z,96209.56
2023-01-15T06:17:15.013Z,96213.31
2023-01-15T06:19:41.590Z,96210.72
2023-01-15T06:22:09.647Z,96214.50
2023-01-15T06:24:37.596Z,96209.56
2023-01-15T06:27:04.130Z,96207.53
2023-01-15T06:29:31.024Z,96194.22
2023-01-15T06:31:57.528Z,96201.78
2023-01-15T06:34:26.233Z,96214.84
2023-01-15T06:36:52.780Z,96215.00
2023-01-15T06:39:19.261Z,96202.84
2023-01-15T06:42:04.619Z,96207.78
2023-01-15T06:44:49.891Z,96214.16
2023-01-15T06:47:23.636Z,96229.59
2023-01-15T06:49:54.740Z,96250.44
2023-01-15T06:52:22.466Z,96244.16
2023-01-15T06:54:49.199Z,96246.19
2023-01-15T06:57:21.073Z,96248.44
2023-01-15T06:59:49.009Z,96230.66
2023-01-15T07:02:17.826Z,96231.38
2023-01-15T07:04:44.404Z,96220.66
2023-01-15T07:07:10.863Z,96217.09
2023-01-15T07:09:37.467Z,96205.66
2023-01-15T07:12:04.203Z,96210.38
2023-01-15T07:14:32.034Z,96205.66
2023-01-15T07:16:59.317Z,96197.06
2023-01-15T07:19:26.393Z,96198.34
2023-01-15T07:21:55.281Z,96202.50
2023-01-15T07:24:24.277Z,96209.56
2023-01-15T07:26:53.762Z,96202.84
2023-01-15T07:29:20.314Z,96196.97
2023-01-15T07:31:46.970Z,96204.38
2023-01-15T07:34:13.580Z,96202.03
2023-01-15T07:36:47.472Z,96194.84
2023-01-15T07:39:14.146Z,96186.13
2023-01-15T07:41:59.719Z,96185.88
2023-01-15T07:44:47.152Z,96162.81
2023-01-15T07:47:38.981Z,96139.59
2023-01-15T07:50:07.930Z,96142.31
2023-01-15T07:52:34.530Z,96170.69
2023-01-15T07:55:01.368Z,96172.94
2023-01-15T07:57:27.998Z,96164.69
2023-01-15T07:59:54.477Z,96182.38
2023-01-15T08:02:21.006Z,96175.50
2023-01-15T08:04:49.878Z,96158.22
2023-01-15T08:07:16.736Z,96153.94
2023-01-15T08:09:43.228Z,96171.47
2023-01-15T08:12:30.305Z,96168.31
2023-01-15T08:15:15.361Z,96159.00
2023-01-15T08:17:50.180Z,96137.34
2023-01-15T08:20:19.754Z,96151.72
2023-01-15T08:22:46.885Z,96149.59
2023-01-15T08:25:16.371Z,96154.53
2023-01-15T08:27:45.306Z,96160.88
2023-01-15T08:30:21.686Z,96157.72
2023-01-15T08:32:48.172Z,96148.75
2023-01-15T08:35:16.958Z,96147.69
2023-01-15T08:37:43.445Z,96160.19
2023-01-15T08:40:11.738Z,96159.63
2023-01-15T08:42:38.683Z,96142.97
2023-01-15T08:45:05.602Z,96147.56
2023-01-15T08:47:32.620Z,96160.88
2023-01-15T08:49:59.269Z,96168.66
2023-01-15T08:52:25.801Z,96166.03
2023-01-15T08:54:52.392Z,96158.13
2023-01-15T08:57:18.909Z,96154.06
2023-01-15T08:59:47.408Z,96139.81
2023-01-15T09:02:17.827Z,96142.88
2023-01-15T09:04:44.334Z,96153.47
2023-01-15T09:07:11.580Z,96143.53
2023-01-15T09:09:38.386Z,96137.63
2023-01-15T09:12:07.801Z,96139.75
2023-01-15T09:14:56.388Z,96137.09
2023-01-15T09:17:20.821Z,96129.75
2023-01-15T09:19:47.453Z,96122.09
2023-01-15T09:22:14.128Z,96115.38
2023-01-15T09:24:40.635Z,96124.16
2023-01-15T09:27:11.792Z,96126.34
2023-01-15T09:29:38.254Z,96115.38
2023-01-15T09:32:04.786Z,96115.09
2023-01-15T09:34:31.303Z,96108.84
2023-01-15T09:36:57.800Z,96108.53
2023-01-15T09:39:24.304Z,96104.97
2023-01-15T09:42:07.832Z,96108.31
2023-01-15T09:44:45.201Z,96103.41
2023-01-15T09:47:18.405Z,96100.38
2023-01-15T09:49:51.761Z,96095.19
2023-01-15T09:52:44.451Z,96091.06
2023-01-15T09:55:16.805Z,96078.22
2023-01-15T09:57:49.089Z,96062.94
2023-01-15T10:00:22.035Z,96063.53
2023-01-15T10:02:55.675Z,96062.53
2023-01-15T10:05:30.692Z,96066.25
2023-01-15T10:08:11.220Z,96081.19
2023-01-15T10:11:16.385Z,96085.97
2023-01-15T10:13:54.828Z,96089.56
2023-01-15T10:16:34.291Z,96079.75
2023-01-15T10:19:05.059Z,96063.84
2023-01-15T10:21:59.899Z,96058.91
2023-01-15T10:24:34.433Z,96046.03
2023-01-15T10:27:06.796Z,96030.00
2023-01-15T10:30:06.599Z,96010.53
2023-01-15T10:33:02.324Z,95992.31
2023-01-15T10:35:56.726Z,95993.25
2023-01-15T10:38:43.698Z,96002.69
2023-01-15T10:41:13.719Z,96000.25
2023-01-15T10:44:11.459Z,96000.66
2023-01-15T10:46:40.709Z,96005.00
2023-01-15T10:49:20.944Z,96000.34
2023-01-15T10:51:56.456Z,95999.28
2023-01-15T10:54:35.350Z,95998.53
2023-01-15T10:57:12.359Z,96008.22
2023-01-15T10:59:59.340Z,96009.09
2023-01-15T11:02:41.060Z,96025.97
2023-01-15T11:05:15.184Z,96041.22
2023-01-15T11:08:05.818Z,96056.41
2023-01-15T11:10:32.471Z,96090.63
2023-01-15T11:13:20.950Z,96145.03
2023-01-15T11:16:09.503Z,96184.19
2023-01-15T11:18:59.354Z,96202.56
2023-01-15T11:21:28.982Z,96199.16
2023-01-15T11:23:57.600Z,96207.72
2023-01-15T11:26:29.476Z,96204.84
2023-01-15T11:29:01.652Z,96221.03
2023-01-15T11:31:40.977Z,96208.84
2023-01-15T11:34:21.904Z,96222.84
2023-01-15T11:36:48.851Z,96240.13
2023-01-15T11:39:31.631Z,96220.66
2023-01-15T11:42:18.393Z,96218.19
2023-01-15T11:45:14.452Z,96223.81
2023-01-15T11:48:10.273Z,96232.72
2023-01-15T11:50:47.885Z,96239.31
2023-01-15T11:53:24.794Z,96245.91
2023-01-15T11:55:55.208Z,96262.09
2023-01-15T11:58:21.968Z,96269.34
2023-01-15T12:00:53.294Z,96275.66
2023-01-15T12:03:22.861Z,96291.00
2023-01-15T12:06:02.731Z,96299.34
2023-01-15T12:08:41.483Z,96315.91
2023-01-15T12:11:29.856Z,96332.66
2023-01-15T12:14:04.688Z,96331.56
2023-01-15T12:16:58.949Z,96351.94
2023-01-15T12:19:26.693Z,96363.47
2023-01-15T12:22:23.601Z,96363.16
2023-01-15T12:25:07.393Z,96374.63
2023-01-15T12:27:39.936Z,96386.09
2023-01-15T12:30:33.340Z,96398.09
2023-01-15T12:33:21.369Z,96413.13
2023-01-15T12:35:56.937Z,96421.94
2023-01-15T12:38:46.728Z,96425.03
2023-01-15T12:41:17.434Z,96437.44
2023-01-15T12:44:09.339Z,96453.50
2023-01-15T12:46:40.975Z,96462.25
2023-01-15T12:49:19.663Z,96468.88
2023-01-15T12:52:00.478Z,96471.75
2023-01-15T12:54:38.493Z,96484.03
2023-01-15T12:57:17.067Z,96476.94
2023-01-15T12:59:51.697Z,96489.47
2023-01-15T13:02:27.034Z,96496.91
2023-01-15T13:05:13.895Z,96499.16
2023-01-15T13:07:46.093Z,96507.88
2023-01-15T13:10:17.753Z,96511.31
2023-01-15T13:12:46.550Z,96519.97
2023-01-15T13:15:19.898Z,96514.28
2023-01-15T13:18:02.124Z,96530.66
2023-01-15T13:20:47.419Z,96558.06
2023-01-15T13:23:16.863Z,96554.38
2023-01-15T13:25:52.471Z,96555.91
2023-01-15T13:28:40.663Z,96564.41
2023-01-15T13:31:31.913Z,96564.75
2023-01-15T13:34:04.791Z,96566.88
2023-01-15T13:36:44.749Z,96568.06
2023-01-15T13:39:19.189Z,96569.34
2023-01-15T13:42:08.261Z,96575.69
2023-01-15T13:44:38.894Z,96584.91
2023-01-15T13:47:13.590Z,96579.97
2023-01-15T13:49:50.211Z,96586.13
2023-01-15T13:52:23.398Z,96592.59
2023-01-15T13:54:53.713Z,96594.47
2023-01-15T13:57:34.875Z,96602.53
2023-01-15T14:00:04.482Z,96604.16
2023-01-15T14:02:34.767Z,96600.91
2023-01-15T14:05:23.746Z,96602.59
2023-01-15T14:07:50.256Z,96610.72
2023-01-15T14:10:23.965Z,96611.63
2023-01-15T14:12:59.272Z,96609.28
2023-01-15T14:15:49.015Z,96613.03
2023-01-15T14:18:24.825Z,96616.16
2023-01-15T14:20:54.122Z,96625.00
2023-01-15T14:23:30.317Z,96624.28
2023-01-15T14:26:03.795Z,96632.69
2023-01-15T14:28:39.343Z,96643.44
2023-01-15T14:31:05.802Z,96644.31
2023-01-15T14:33:52.222Z,96646.31
2023-01-15T14:36:24.213Z,96650.94
2023-01-15T14:38:55.901Z,96659.00
2023-01-15T14:41:29.064Z,96662.75
2023-01-15T14:43:57.766Z,96659.44
2023-01-15T14:46:27.807Z,96664.25
2023-01-15T14:48:54.624Z,96659.88
2023-01-15T14:51:31.832Z,96661.97
2023-01-15T14:54:04.079Z,96673.56
2023-01-15T14:56:36.186Z,96669.59
2023-01-15T14:59:56.562Z,96677.72
2023-01-15T15:02:31.434Z,96678.13
2023-01-15T15:05:00.445Z,96693.19
2023-01-15T15:07:30.918Z,96702.75
2023-01-15T15:10:16.349Z,96711.94
2023-01-15T15:12:55.153Z,96718.44
2023-01-15T15:15:28.025Z,96731.94
2023-01-15T15:18:06.022Z,96742.53
2023-01-15T15:21:11.355Z,96742.75
2023-01-15T15:23:42.700Z,96744.72
2023-01-15T15:26:29.383Z,96745.66
2023-01-15T15:29:01.192Z,96745.66
2023-01-15T15:31:31.115Z,96749.47
2023-01-15T15:33:58.880Z,96739.25
2023-01-15T15:36:29.009Z,96751.56
2023-01-15T15:39:01.493Z,96754.25
2023-01-15T15:41:50.621Z,96755.59
2023-01-15T15:44:50.243Z,96765.34
2023-01-15T15:47:37.792Z,96759.72
2023-01-15T15:50:04.872Z,96775.91
2023-01-15T15:52:33.351Z,96776.41
2023-01-15T15:55:06.102Z,96764.41
2023-01-15T15:57:34.841Z,96759.94
2023-01-15T16:00:01.549Z,96747.88
2023-01-15T16:02:38.669Z,96737.34
2023-01-15T16:05:26.260Z,96738.09
2023-01-15T16:07:54.973Z,96724.31
2023-01-15T16:10:33.362Z,96744.41
2023-01-15T16:13:04.370Z,96755.72
2023-01-15T16:15:38.564Z,96764.63
2023-01-15T16:18:05.935Z,96776.81
2023-01-15T16:20:33.187Z,96775.88
2023-01-15T16:23:02.307Z,96768.97
2023-01-15T16:25:33.780Z,96782.19
2023-01-15T16:28:01.987Z,96770.53
2023-01-15T16:30:29.534Z,96744.53
2023-01-15T16:33:01.566Z,96747.91
2023-01-15T16:35:30.295Z,96768.06
2023-01-15T16:37:59.010Z,96772.81
2023-01-15T16:40:32.881Z,96779.66
2023-01-15T16:43:04.368Z,96787.97
2023-01-15T16:45:34.393Z,96792.09
2023-01-15T16:48:24.887Z,96806.63
2023-01-15T16:50:52.222Z,96800.53
2023-01-15T16:53:40.717Z,96805.47
2023-01-15T16:56:26.655Z,96800.16
2023-01-15T16:58:53.301Z,96804.59
2023-01-15T17:01:28.631Z,96811.38
2023-01-15T17:03:55.231Z,96807.84
2023-01-15T17:06:26.265Z,96806.28
2023-01-15T17:08:53.766Z,96806.47
2023-01-15T17:11:33.625Z,96795.50
2023-01-15T17:14:19.509Z,96808.66
2023-01-15T17:16:46.148Z,96814.34
2023-01-15T17:19:12.981Z,96825.50
2023-01-15T17:21:39.758Z,96827.28
2023-01-15T17:24:10.726Z,96824.47
2023-01-15T17:26:37.329Z,96829.34
2023-01-15T17:29:03.836Z,96821.53
2023-01-15T17:31:32.644Z,96826.91
2023-01-15T17:34:03.689Z,96817.91
2023-01-15T17:36:31.080Z,96826.69
2023-01-15T17:39:02.517Z,96817.94
2023-01-15T17:41:29.352Z,96816.06
2023-01-15T17:43:55.896Z,96821.94
2023-01-15T17:46:22.498Z,96819.00
2023-01-15T17:48:49.054Z,96821.56
2023-01-15T17:51:15.951Z,96818.50
2023-01-15T17:53:42.827Z,96828.44
2023-01-15T17:56:27.934Z,96825.31
2023-01-15T17:59:12.882Z,96830.06
2023-01-15T18:02:02.172Z,96833.75
2023-01-15T18:05:07.323Z,96833.22
2023-01-15T18:07:39.299Z,96836.06
2023-01-15T18:10:08.711Z,96836.78
2023-01-15T18:12:35.187Z,96831.63
2023-01-15T18:15:03.929Z,96842.88
2023-01-15T18:17:31.730Z,96836.91
2023-01-15T18:20:00.494Z,96836.63
2023-01-15T18:22:26.970Z,96838.81
2023-01-15T18:24:53.683Z,96842.72
2023-01-15T18:27:20.169Z,96841.69
2023-01-15T18:29:49.372Z,96841.19
2023-01-15T18:32:18.466Z,96849.28
2023-01-15T18:34:45.127Z,96849.28
2023-01-15T18:37:13.246Z,96850.28
2023-01-15T18:39:39.700Z,96857.06
2023-01-15T18:42:06.277Z,96857.69
2023-01-15T18:44:51.438Z,96852.66
2023-01-15T18:47:18.040Z,96854.50
2023-01-15T18:49:46.122Z,96849.91
2023-01-15T18:52:33.842Z,96856.34
2023-01-15T18:55:00.402Z,96857.19
2023-01-15T18:57:27.015Z,96854.44
2023-01-15T18:59:53.523Z,96846.88
2023-01-15T19:02:21.568Z,96852.81
2023-01-15T19:04:48.877Z,96853.72
2023-01-15T19:07:16.268Z,96855.25
2023-01-15T19:09:42.846Z,96851.28
2023-01-15T19:12:09.454Z,96850.09
2023-01-15T19:14:54.670Z,96849.28
2023-01-15T19:17:43.009Z,96854.75
2023-01-15T19:20:12.852Z,96853.97
2023-01-15T19:22:58.093Z,96848.75
2023-01-15T19:25:33.405Z,96846.69
2023-01-15T19:27:59.971Z,96848.56
2023-01-15T19:30:28.269Z,96845.88
2023-01-15T19:32:55.755Z,96849.56
2023-01-15T19:35:22.317Z,96846.25
2023-01-15T19:37:49.473Z,96846.25
2023-01-15T19:40:21.405Z,96847.72
2023-01-15T19:43:07.105Z,96857.25
2023-01-15T19:45:52.850Z,96847.94
2023-01-15T19:48:39.258Z,96838.97
2023-01-15T19:51:07.685Z,96844.53
2023-01-15T19:53:37.120Z,96839.25
2023-01-15T19:56:04.557Z,96841.78
2023-01-15T19:58:33.915Z,96838.44
2023-01-15T20:01:01.522Z,96844.00
2023-01-15T20:03:30.394Z,96832.63
2023-01-15T20:05:57.608Z,96835.22
2023-01-15T20:08:24.284Z,96823.56
2023-01-15T20:10:50.943Z,96825.06
2023-01-15T20:13:39.021Z,96813.78
2023-01-15T20:16:13.736Z,96812.47
2023-01-15T20:18:40.744Z,96817.28
2023-01-15T20:21:07.937Z,96814.88
2023-01-15T20:23:36.514Z,96808.50
2023-01-15T20:26:10.344Z,96815.72
2023-01-15T20:28:42.249Z,96802.06
2023-01-15T20:31:17.479Z,96794.69
2023-01-15T20:33:44.335Z,96795.88
2023-01-15T20:36:10.997Z,96794.50
2023-01-15T20:38:39.740Z,96784.16
2023-01-15T20:41:28.364Z,96775.34
2023-01-15T20:44:13.791Z,96777.41
2023-01-15T20:46:40.428Z,96775.56
2023-01-15T20:49:25.200Z,96774.81
2023-01-15T20:51:52.738Z,96773.16
2023-01-15T20:54:23.745Z,96766.13
2023-01-15T20:56:50.585Z,96760.59
2023-01-15T20:59:17.151Z,96764.97
2023-01-15T21:01:43.716Z,96766.13
2023-01-15T21:04:13.762Z,96759.41
2023-01-15T21:06:40.539Z,96753.56
2023-01-15T21:09:07.106Z,96753.75
2023-01-15T21:11:33.702Z,96739.50
2023-01-15T21:14:00.195Z,96737.59
2023-01-15T21:16:26.704Z,96736.75
2023-01-15T21:18:53.195Z,96735.00
2023-01-15T21:21:22.689Z,96737.41
2023-01-15T21:23:49.302Z,96732.59
2023-01-15T21:26:16.525Z,96722.00
2023-01-15T21:28:44.630Z,96715.97
2023-01-15T21:31:13.315Z,96710.53
2023-01-15T21:33:40.004Z,96704.91
2023-01-15T21:36:11.348Z,96713.31
2023-01-15T21:38:37.943Z,96705.03
2023-01-15T21:41:14.164Z,96703.69
2023-01-15T21:44:00.296Z,96697.25
2023-01-15T21:46:30.016Z,96681.94
2023-01-15T21:48:58.679Z,96690.25
2023-01-15T21:51:26.737Z,96691.81
2023-01-15T21:54:00.017Z,96690.78
2023-01-15T21:56:26.950Z,96687.50
2023-01-15T21:58:53.907Z,96686.97
2023-01-15T22:01:20.996Z,96685.44
2023-01-15T22:03:47.663Z,96680.59
2023-01-15T22:06:14.284Z,96668.06
2023-01-15T22:08:40.852Z,96671.09
2023-01-15T22:11:12.532Z,96661.66
2023-01-15T22:13:40.778Z,96658.13
2023-01-15T22:16:08.295Z,96667.84
2023-01-15T22:18:34.788Z,96661.97
2023-01-15T22:21:04.168Z,96662.91
2023-01-15T22:23:31.559Z,96670.28
2023-01-15T22:25:58.055Z,96667.16
2023-01-15T22:28:24.736Z,96671.16
2023-01-15T22:30:51.471Z,96667.81
2023-01-15T22:33:17.993Z,96660.16
2023-01-15T22:35:44.562Z,96649.38
2023-01-15T22:38:11.136Z,96654.25
2023-01-15T22:40:37.621Z,96645.69
2023-01-15T22:43:04.138Z,96641.81
2023-01-15T22:45:30.594Z,96631.38
2023-01-15T22:47:57.090Z,96629.19
2023-01-15T22:50:23.528Z,96620.97
2023-01-15T22:52:49.989Z,96616.72
2023-01-15T22:55:16.439Z,96610.47
2023-01-15T22:57:42.937Z,96593.19
2023-01-15T23:00:10.701Z,96593.84
2023-01-15T23:03:04.896Z,96587.75
2023-01-15T23:05:34.596Z,96584.75
2023-01-15T23:08:01.083Z,96582.16
2023-01-15T23:10:27.623Z,96590.47
2023-01-15T23:12:56.804Z,96586.44
2023-01-15T23:15:23.323Z,96589.53
2023-01-15T23:17:52.138Z,96578.53
2023-01-15T23:20:21.006Z,96572.75
2023-01-15T23:22:47.484Z,96571.25
2023-01-15T23:25:14.108Z,96567.31
2023-01-15T23:27:40.836Z,96547.97
2023-01-15T23:30:08.274Z,96545.09
2023-01-15T23:32:34.781Z,96543.41
2023-01-15T23:35:01.259Z,96529.34
2023-01-15T23:37:27.775Z,96529.84
2023-01-15T23:39:54.220Z,96526.63
2023-01-15T23:42:40.019Z,96527.81
2023-01-15T23:45:25.683Z,96524.06
2023-01-15T23:47:52.130Z,96519.28
2023-01-15T23:50:18.611Z,96512.66
2023-01-15T23:52:45.102Z,96514.91
2023-01-15T23:55:11.571Z,96507.03
2023-01-15T23:57:38.055Z,96494.56
